sensor_id;sensor_type;location;lat;lon;timestamp;pressure;altitude;pressure_sealevel;temperature;humidity
24962;BME280;12992;50.884;13.668;2022-10-14T00:01:39;97385.75;;;11.60;100.00
24962;BME280;12992;50.884;13.668;2022-10-14T00:04:04;97388.94;;;11.52;100.00
24962;BME280;12992;50.884;13.668;2022-10-14T00:06:32;97386.97;;;11.48;100.00
24962;BME280;12992;50.884;13.668;2022-10-14T00:08:59;97399.59;;;11.54;100.00
24962;BME280;12992;50.884;13.668;2022-10-14T00:11:28;97409.22;;;11.61;100.00
24962;BME280;12992;50.884;13.668;2022-10-14T00:13:57;97407.78;;;11.54;100.00
24962;BME280;12992;50.884;13.668;2022-10-14T00:16:26;97408.59;;;11.54;100.00
24962;BME280;12992;50.884;13.668;2022-10-14T00:18:52;97413.03;;;11.60;100.00
24962;BME280;12992;50.884;13.668;2022-10-14T00:21:18;97426.22;;;11.74;100.00
24962;BME280;12992;50.884;13.668;2022-10-14T00:23:44;97421.91;;;11.78;100.00
24962;BME280;12992;50.884;13.668;2022-10-14T00:26:24;97420.81;;;11.79;100.00
24962;BME280;12992;50.884;13.668;2022-10-14T00:28:50;97409.97;;;11.84;100.00
24962;BME280;12992;50.884;13.668;2022-10-14T00:31:16;97416.00;;;11.91;100.00
24962;BME280;12992;50.884;13.668;2022-10-14T00:33:46;97407.81;;;11.91;100.00
24962;BME280;12992;50.884;13.668;2022-10-14T00:36:14;97416.88;;;11.97;100.00
24962;BME280;12992;50.884;13.668;2022-10-14T00:38:40;97402.91;;;11.88;100.00
24962;BME280;12992;50.884;13.668;2022-10-14T00:41:06;97406.09;;;11.80;100.00
24962;BME280;12992;50.884;13.668;2022-10-14T00:44:53;97411.75;;;11.73;100.00
24962;BME280;12992;50.884;13.668;2022-10-14T00:46:52;97403.75;;;11.61;100.00
24962;BME280;12992;50.884;13.668;2022-10-14T00:51:51;97419.91;;;11.68;100.00
24962;BME280;12992;50.884;13.668;2022-10-14T00:54:20;97415.22;;;11.63;100.00
24962;BME280;12992;50.884;13.668;2022-10-14T00:56:48;97412.19;;;11.60;100.00
24962;BME280;12992;50.884;13.668;2022-10-14T00:59:15;97407.78;;;11.54;100.00
24962;BME280;12992;50.884;13.668;2022-10-14T01:01:40;97409.13;;;11.51;100.00
24962;BME280;12992;50.884;13.668;2022-10-14T01:04:06;97401.72;;;11.47;100.00
24962;BME280;12992;50.884;13.668;2022-10-14T01:09:28;97402.53;;;11.47;100.00
24962;BME280;12992;50.884;13.668;2022-10-14T01:12:07;97399.78;;;11.42;100.00
24962;BME280;12992;50.884;13.668;2022-10-14T01:14:47;97392.88;;;11.34;100.00
24962;BME280;12992;50.884;13.668;2022-10-14T01:17:26;97390.63;;;11.26;100.00
24962;BME280;12992;50.884;13.668;2022-10-14T01:20:15;97394.13;;;11.22;100.00
24962;BME280;12992;50.884;13.668;2022-10-14T01:25:39;97408.81;;;11.21;100.00
24962;BME280;12992;50.884;13.668;2022-10-14T01:30:43;97427.25;;;11.35;100.00
24962;BME280;12992;50.884;13.668;2022-10-14T01:33:15;97428.94;;;11.42;100.00
24962;BME280;12992;50.884;13.668;2022-10-14T01:36:06;97438.88;;;11.53;100.00
24962;BME280;12992;50.884;13.668;2022-10-14T01:38:37;97432.59;;;11.52;100.00
24962;BME280;12992;50.884;13.668;2022-10-14T01:41:29;97437.00;;;11.58;100.00
24962;BME280;12992;50.884;13.668;2022-10-14T01:44:02;97440.94;;;11.73;100.00
24962;BME280;12992;50.884;13.668;2022-10-14T01:46:30;97427.81;;;11.70;100.00
24962;BME280;12992;50.884;13.668;2022-10-14T01:49:02;97419.09;;;11.68;100.00
24962;BME280;12992;50.884;13.668;2022-10-14T01:51:32;97424.56;;;11.73;100.00
24962;BME280;12992;50.884;13.668;2022-10-14T01:54:06;97418.03;;;11.74;100.00
24962;BME280;12992;50.884;13.668;2022-10-14T01:56:34;97422.09;;;11.71;100.00
24962;BME280;12992;50.884;13.668;2022-10-14T01:59:00;97416.38;;;11.73;100.00
24962;BME280;12992;50.884;13.668;2022-10-14T02:01:29;97405.72;;;11.66;100.00
24962;BME280;12992;50.884;13.668;2022-10-14T02:03:54;97401.03;;;11.61;100.00
24962;BME280;12992;50.884;13.668;2022-10-14T02:09:00;97397.75;;;11.64;100.00
24962;BME280;12992;50.884;13.668;2022-10-14T02:11:30;97394.69;;;11.56;100.00
24962;BME280;12992;50.884;13.668;2022-10-14T02:14:09;97388.34;;;11.45;100.00
24962;BME280;12992;50.884;13.668;2022-10-14T02:16:40;97393.25;;;11.48;100.00
24962;BME280;12992;50.884;13.668;2022-10-14T02:21:43;97400.38;;;11.49;100.00
24962;BME280;12992;50.884;13.668;2022-10-14T02:24:23;97394.94;;;11.49;100.00
24962;BME280;12992;50.884;13.668;2022-10-14T02:26:53;97397.06;;;11.47;100.00
24962;BME280;12992;50.884;13.668;2022-10-14T02:29:21;97389.69;;;11.43;100.00
24962;BME280;12992;50.884;13.668;2022-10-14T02:31:52;97389.38;;;11.39;100.00
24962;BME280;12992;50.884;13.668;2022-10-14T02:34:20;97384.97;;;11.33;100.00
24962;BME280;12992;50.884;13.668;2022-10-14T02:36:48;97391.75;;;11.30;100.00
24962;BME280;12992;50.884;13.668;2022-10-14T02:39:19;97393.09;;;11.28;100.00
24962;BME280;12992;50.884;13.668;2022-10-14T02:41:46;97383.78;;;11.24;100.00
24962;BME280;12992;50.884;13.668;2022-10-14T02:44:11;97391.16;;;11.23;100.00
24962;BME280;12992;50.884;13.668;2022-10-14T02:46:38;97383.22;;;11.22;100.00
24962;BME280;12992;50.884;13.668;2022-10-14T02:49:07;97390.06;;;11.24;100.00
24962;BME280;12992;50.884;13.668;2022-10-14T02:51:34;97395.81;;;11.28;100.00
24962;BME280;12992;50.884;13.668;2022-10-14T02:54:00;97395.06;;;11.32;100.00
24962;BME280;12992;50.884;13.668;2022-10-14T02:56:26;97396.63;;;11.28;100.00
24962;BME280;12992;50.884;13.668;2022-10-14T02:58:52;97398.03;;;11.31;100.00
24962;BME280;12992;50.884;13.668;2022-10-14T03:01:17;97404.91;;;11.39;100.00
24962;BME280;12992;50.884;13.668;2022-10-14T03:03:43;97417.66;;;11.60;100.00
24962;BME280;12992;50.884;13.668;2022-10-14T03:06:08;97410.44;;;11.76;100.00
24962;BME280;12992;50.884;13.668;2022-10-14T03:08:34;97403.94;;;11.82;100.00
24962;BME280;12992;50.884;13.668;2022-10-14T03:11:01;97400.72;;;11.90;100.00
24962;BME280;12992;50.884;13.668;2022-10-14T03:13:26;97407.59;;;11.98;100.00
24962;BME280;12992;50.884;13.668;2022-10-14T03:15:53;97398.53;;;11.92;100.00
24962;BME280;12992;50.884;13.668;2022-10-14T03:18:18;97376.66;;;11.82;100.00
24962;BME280;12992;50.884;13.668;2022-10-14T03:20:46;97386.53;;;11.88;100.00
24962;BME280;12992;50.884;13.668;2022-10-14T03:23:17;97391.44;;;11.91;100.00
24962;BME280;12992;50.884;13.668;2022-10-14T03:25:45;97382.16;;;11.92;100.00
24962;BME280;12992;50.884;13.668;2022-10-14T03:28:20;97386.06;;;12.01;100.00
24962;BME280;12992;50.884;13.668;2022-10-14T03:31:05;97377.81;;;11.91;100.00
24962;BME280;12992;50.884;13.668;2022-10-14T03:33:44;97375.56;;;11.83;100.00
24962;BME280;12992;50.884;13.668;2022-10-14T03:36:11;97370.06;;;11.78;100.00
24962;BME280;12992;50.884;13.668;2022-10-14T03:38:43;97370.00;;;11.73;100.00
24962;BME280;12992;50.884;13.668;2022-10-14T03:41:17;97365.56;;;11.61;100.00
24962;BME280;12992;50.884;13.668;2022-10-14T03:43:43;97367.94;;;11.53;100.00
24962;BME280;12992;50.884;13.668;2022-10-14T03:46:09;97361.34;;;11.44;100.00
24962;BME280;12992;50.884;13.668;2022-10-14T03:48:35;97364.81;;;11.39;100.00
24962;BME280;12992;50.884;13.668;2022-10-14T03:51:00;97363.44;;;11.37;100.00
24962;BME280;12992;50.884;13.668;2022-10-14T03:53:25;97370.25;;;11.34;100.00
24962;BME280;12992;50.884;13.668;2022-10-14T03:55:51;97359.56;;;11.27;100.00
24962;BME280;12992;50.884;13.668;2022-10-14T03:58:16;97359.00;;;11.25;100.00
24962;BME280;12992;50.884;13.668;2022-10-14T04:00:49;97356.47;;;11.19;100.00
24962;BME280;12992;50.884;13.668;2022-10-14T04:03:31;97367.59;;;11.12;100.00
24962;BME280;12992;50.884;13.668;2022-10-14T04:05:56;97357.50;;;11.13;100.00
24962;BME280;12992;50.884;13.668;2022-10-14T04:08:24;97358.81;;;11.05;100.00
24962;BME280;12992;50.884;13.668;2022-10-14T04:10:55;97353.09;;;11.06;100.00
24962;BME280;12992;50.884;13.668;2022-10-14T04:13:22;97362.13;;;11.12;100.00
24962;BME280;12992;50.884;13.668;2022-10-14T04:15:47;97369.84;;;11.20;100.00
24962;BME280;12992;50.884;13.668;2022-10-14T04:18:20;97363.84;;;11.18;100.00
24962;BME280;12992;50.884;13.668;2022-10-14T04:20:47;97368.88;;;11.31;100.00
24962;BME280;12992;50.884;13.668;2022-10-14T04:23:14;97361.81;;;11.35;100.00
24962;BME280;12992;50.884;13.668;2022-10-14T04:25:42;97370.88;;;11.46;100.00
24962;BME280;12992;50.884;13.668;2022-10-14T04:28:09;97360.47;;;11.38;100.00
24962;BME280;12992;50.884;13.668;2022-10-14T04:30:48;97351.72;;;11.36;100.00
24962;BME280;12992;50.884;13.668;2022-10-14T04:33:20;97355.31;;;11.42;100.00
24962;BME280;12992;50.884;13.668;2022-10-14T04:35:47;97361.88;;;11.46;100.00
24962;BME280;12992;50.884;13.668;2022-10-14T04:38:20;97353.69;;;11.41;100.00
24962;BME280;12992;50.884;13.668;2022-10-14T04:40:52;97347.28;;;11.30;100.00
24962;BME280;12992;50.884;13.668;2022-10-14T04:43:19;97348.34;;;11.24;100.00
24962;BME280;12992;50.884;13.668;2022-10-14T04:45:45;97348.84;;;11.21;100.00
24962;BME280;12992;50.884;13.668;2022-10-14T04:48:15;97350.19;;;11.18;100.00
24962;BME280;12992;50.884;13.668;2022-10-14T04:50:42;97358.13;;;11.20;100.00
24962;BME280;12992;50.884;13.668;2022-10-14T04:53:37;97352.03;;;11.13;100.00
24962;BME280;12992;50.884;13.668;2022-10-14T04:56:14;97344.94;;;11.06;100.00
24962;BME280;12992;50.884;13.668;2022-10-14T04:58:50;97343.28;;;11.05;100.00
24962;BME280;12992;50.884;13.668;2022-10-14T05:01:15;97347.66;;;11.06;100.00
24962;BME280;12992;50.884;13.668;2022-10-14T05:03:43;97358.03;;;11.10;100.00
24962;BME280;12992;50.884;13.668;2022-10-14T05:06:10;97357.28;;;11.14;100.00
24962;BME280;12992;50.884;13.668;2022-10-14T05:08:39;97354.56;;;11.19;100.00
24962;BME280;12992;50.884;13.668;2022-10-14T05:11:08;97349.09;;;11.14;100.00
24962;BME280;12992;50.884;13.668;2022-10-14T05:13:46;97352.09;;;11.18;100.00
24962;BME280;12992;50.884;13.668;2022-10-14T05:16:14;97350.19;;;11.18;100.00
24962;BME280;12992;50.884;13.668;2022-10-14T05:18:40;97348.56;;;11.17;100.00
24962;BME280;12992;50.884;13.668;2022-10-14T05:21:10;97347.44;;;11.13;100.00
24962;BME280;12992;50.884;13.668;2022-10-14T05:23:49;97350.38;;;11.06;100.00
24962;BME280;12992;50.884;13.668;2022-10-14T05:26:15;97344.59;;;11.03;100.00
24962;BME280;12992;50.884;13.668;2022-10-14T05:28:41;97350.88;;;11.03;100.00
24962;BME280;12992;50.884;13.668;2022-10-14T05:31:07;97343.50;;;11.04;100.00
24962;BME280;12992;50.884;13.668;2022-10-14T05:33:39;97351.41;;;11.00;100.00
24962;BME280;12992;50.884;13.668;2022-10-14T05:36:05;97348.97;;;11.04;100.00
24962;BME280;12992;50.884;13.668;2022-10-14T05:38:32;97358.00;;;11.04;100.00
24962;BME280;12992;50.884;13.668;2022-10-14T05:40:58;97370.63;;;11.16;100.00
24962;BME280;12992;50.884;13.668;2022-10-14T05:43:24;97367.38;;;11.19;100.00
24962;BME280;12992;50.884;13.668;2022-10-14T05:45:50;97364.38;;;11.20;100.00
24962;BME280;12992;50.884;13.668;2022-10-14T05:48:16;97351.81;;;11.14;100.00
24962;BME280;12992;50.884;13.668;2022-10-14T05:50:42;97366.91;;;11.27;100.00
24962;BME280;12992;50.884;13.668;2022-10-14T05:53:11;97366.66;;;11.28;100.00
24962;BME280;12992;50.884;13.668;2022-10-14T05:55:42;97368.09;;;11.36;100.00
24962;BME280;12992;50.884;13.668;2022-10-14T05:58:07;97364.53;;;11.35;100.00
24962;BME280;12992;50.884;13.668;2022-10-14T06:00:37;97373.13;;;11.49;100.00
24962;BME280;12992;50.884;13.668;2022-10-14T06:03:11;97369.81;;;11.47;100.00
24962;BME280;12992;50.884;13.668;2022-10-14T06:05:38;97379.16;;;11.56;100.00
24962;BME280;12992;50.884;13.668;2022-10-14T06:08:04;97379.25;;;11.67;100.00
24962;BME280;12992;50.884;13.668;2022-10-14T06:10:33;97381.72;;;11.68;100.00
24962;BME280;12992;50.884;13.668;2022-10-14T06:12:59;97382.38;;;11.80;100.00
24962;BME280;12992;50.884;13.668;2022-10-14T06:15:25;97383.25;;;11.86;100.00
24962;BME280;12992;50.884;13.668;2022-10-14T06:17:52;97378.06;;;11.89;100.00
24962;BME280;12992;50.884;13.668;2022-10-14T06:20:18;97378.88;;;11.90;100.00
24962;BME280;12992;50.884;13.668;2022-10-14T06:22:43;97373.97;;;11.87;100.00
24962;BME280;12992;50.884;13.668;2022-10-14T06:25:09;97381.66;;;11.95;100.00
24962;BME280;12992;50.884;13.668;2022-10-14T06:27:35;97382.75;;;11.99;100.00
24962;BME280;12992;50.884;13.668;2022-10-14T06:30:00;97382.50;;;12.01;100.00
24962;BME280;12992;50.884;13.668;2022-10-14T06:32:25;97383.41;;;12.11;100.00
24962;BME280;12992;50.884;13.668;2022-10-14T06:34:51;97395.53;;;12.36;100.00
24962;BME280;12992;50.884;13.668;2022-10-14T06:37:16;97392.81;;;12.36;100.00
24962;BME280;12992;50.884;13.668;2022-10-14T06:39:41;97393.66;;;12.41;100.00
24962;BME280;12992;50.884;13.668;2022-10-14T06:42:09;97392.34;;;12.49;100.00
24962;BME280;12992;50.884;13.668;2022-10-14T06:44:34;97391.28;;;12.55;100.00
24962;BME280;12992;50.884;13.668;2022-10-14T06:47:00;97394.56;;;12.57;100.00
24962;BME280;12992;50.884;13.668;2022-10-14T06:49:25;97394.56;;;12.57;100.00
24962;BME280;12992;50.884;13.668;2022-10-14T06:51:50;97400.34;;;12.71;100.00
24962;BME280;12992;50.884;13.668;2022-10-14T06:54:16;97400.41;;;12.81;100.00
24962;BME280;12992;50.884;13.668;2022-10-14T06:56:41;97402.34;;;12.96;100.00
24962;BME280;12992;50.884;13.668;2022-10-14T06:59:06;97393.06;;;13.07;100.00
24962;BME280;12992;50.884;13.668;2022-10-14T07:01:32;97388.44;;;13.13;100.00
24962;BME280;12992;50.884;13.668;2022-10-14T07:03:57;97390.41;;;13.22;100.00
24962;BME280;12992;50.884;13.668;2022-10-14T07:06:23;97386.56;;;13.23;100.00
24962;BME280;12992;50.884;13.668;2022-10-14T07:08:48;97390.44;;;13.27;100.00
24962;BME280;12992;50.884;13.668;2022-10-14T07:11:13;97388.25;;;13.35;100.00
24962;BME280;12992;50.884;13.668;2022-10-14T07:13:39;97398.63;;;13.38;100.00
24962;BME280;12992;50.884;13.668;2022-10-14T07:16:05;97413.44;;;13.67;100.00
24962;BME280;12992;50.884;13.668;2022-10-14T07:18:30;97405.75;;;13.84;100.00
24962;BME280;12992;50.884;13.668;2022-10-14T07:21:00;97414.25;;;13.98;100.00
24962;BME280;12992;50.884;13.668;2022-10-14T07:23:26;97392.59;;;14.02;100.00
24962;BME280;12992;50.884;13.668;2022-10-14T07:25:54;97399.41;;;14.20;100.00
24962;BME280;12992;50.884;13.668;2022-10-14T07:28:20;97407.59;;;14.40;100.00
24962;BME280;12992;50.884;13.668;2022-10-14T07:30:45;97410.06;;;14.52;100.00
24962;BME280;12992;50.884;13.668;2022-10-14T07:33:20;97413.84;;;14.66;100.00
24962;BME280;12992;50.884;13.668;2022-10-14T07:35:45;97393.00;;;14.70;100.00
24962;BME280;12992;50.884;13.668;2022-10-14T07:38:10;97391.91;;;14.76;100.00
24962;BME280;12992;50.884;13.668;2022-10-14T07:40:36;97398.44;;;14.85;100.00
24962;BME280;12992;50.884;13.668;2022-10-14T07:43:01;97388.88;;;14.78;100.00
24962;BME280;12992;50.884;13.668;2022-10-14T07:45:26;97389.41;;;14.80;100.00
24962;BME280;12992;50.884;13.668;2022-10-14T07:47:52;97382.81;;;14.81;100.00
24962;BME280;12992;50.884;13.668;2022-10-14T07:50:18;97395.13;;;14.88;100.00
24962;BME280;12992;50.884;13.668;2022-10-14T07:52:43;97392.91;;;14.90;100.00
24962;BME280;12992;50.884;13.668;2022-10-14T07:55:09;97402.69;;;15.07;100.00
24962;BME280;12992;50.884;13.668;2022-10-14T07:57:34;97390.66;;;15.02;100.00
24962;BME280;12992;50.884;13.668;2022-10-14T08:00:00;97394.72;;;15.10;100.00
24962;BME280;12992;50.884;13.668;2022-10-14T08:02:25;97397.44;;;15.15;100.00
24962;BME280;12992;50.884;13.668;2022-10-14T08:04:53;97403.47;;;15.17;100.00
24962;BME280;12992;50.884;13.668;2022-10-14T08:07:20;97420.38;;;15.35;100.00
24962;BME280;12992;50.884;13.668;2022-10-14T08:09:45;97411.25;;;15.44;100.00
24962;BME280;12992;50.884;13.668;2022-10-14T08:12:11;97423.25;;;15.64;100.00
24962;BME280;12992;50.884;13.668;2022-10-14T08:14:36;97400.97;;;15.60;100.00
24962;BME280;12992;50.884;13.668;2022-10-14T08:17:02;97415.44;;;15.76;100.00
24962;BME280;12992;50.884;13.668;2022-10-14T08:19:27;97412.03;;;15.89;100.00
24962;BME280;12992;50.884;13.668;2022-10-14T08:21:53;97389.63;;;15.77;100.00
24962;BME280;12992;50.884;13.668;2022-10-14T08:24:18;97386.72;;;15.58;100.00
24962;BME280;12992;50.884;13.668;2022-10-14T08:26:54;97370.13;;;15.39;100.00
24962;BME280;12992;50.884;13.668;2022-10-14T08:29:21;97357.63;;;15.23;100.00
24962;BME280;12992;50.884;13.668;2022-10-14T08:31:47;97350.59;;;15.07;100.00
24962;BME280;12992;50.884;13.668;2022-10-14T08:34:13;97350.66;;;14.91;100.00
24962;BME280;12992;50.884;13.668;2022-10-14T08:36:38;97340.03;;;14.85;100.00
24962;BME280;12992;50.884;13.668;2022-10-14T08:39:04;97361.63;;;14.96;100.00
24962;BME280;12992;50.884;13.668;2022-10-14T08:47:02;97351.84;;;14.75;100.00
24962;BME280;12992;50.884;13.668;2022-10-14T08:49:47;97343.09;;;14.73;100.00
24962;BME280;12992;50.884;13.668;2022-10-14T08:52:23;97355.94;;;14.83;100.00
24962;BME280;12992;50.884;13.668;2022-10-14T08:54:53;97374.47;;;15.01;100.00
24962;BME280;12992;50.884;13.668;2022-10-14T08:57:25;97370.66;;;15.02;100.00
24962;BME280;12992;50.884;13.668;2022-10-14T08:59:50;97372.00;;;15.05;100.00
24962;BME280;12992;50.884;13.668;2022-10-14T09:02:29;97370.03;;;15.10;100.00
24962;BME280;12992;50.884;13.668;2022-10-14T09:04:58;97368.06;;;15.21;100.00
24962;BME280;12992;50.884;13.668;2022-10-14T09:07:24;97358.22;;;15.15;100.00
24962;BME280;12992;50.884;13.668;2022-10-14T09:09:52;97368.00;;;15.26;100.00
24962;BME280;12992;50.884;13.668;2022-10-14T09:12:25;97353.25;;;15.17;100.00
24962;BME280;12992;50.884;13.668;2022-10-14T09:15:07;97376.16;;;15.41;100.00
24962;BME280;12992;50.884;13.668;2022-10-14T09:17:40;97358.88;;;15.41;100.00
24962;BME280;12992;50.884;13.668;2022-10-14T09:22:33;97365.91;;;15.52;100.00
24962;BME280;12992;50.884;13.668;2022-10-14T09:24:58;97367.78;;;15.62;100.00
24962;BME280;12992;50.884;13.668;2022-10-14T09:27:27;97351.94;;;15.48;100.00
24962;BME280;12992;50.884;13.668;2022-10-14T09:29:58;97342.16;;;15.37;100.00
24962;BME280;12992;50.884;13.668;2022-10-14T09:32:31;97353.38;;;15.41;100.00
24962;BME280;12992;50.884;13.668;2022-10-14T09:34:59;97349.19;;;15.48;100.00
24962;BME280;12992;50.884;13.668;2022-10-14T09:45:19;97352.81;;;15.78;100.00
24962;BME280;12992;50.884;13.668;2022-10-14T09:47:51;97353.50;;;15.65;100.00
24962;BME280;12992;50.884;13.668;2022-10-14T09:50:41;97337.13;;;15.44;100.00
24962;BME280;12992;50.884;13.668;2022-10-14T09:53:16;97336.41;;;15.34;100.00
24962;BME280;12992;50.884;13.668;2022-10-14T09:55:55;97332.34;;;15.26;100.00
24962;BME280;12992;50.884;13.668;2022-10-14T09:58:28;97322.34;;;15.06;100.00
24962;BME280;12992;50.884;13.668;2022-10-14T10:00:56;97336.28;;;15.10;100.00
24962;BME280;12992;50.884;13.668;2022-10-14T10:03:32;97346.06;;;15.26;100.00
24962;BME280;12992;50.884;13.668;2022-10-14T10:06:02;97345.66;;;15.43;100.00
24962;BME280;12992;50.884;13.668;2022-10-14T10:08:28;97357.94;;;15.55;100.00
24962;BME280;12992;50.884;13.668;2022-10-14T10:11:11;97367.47;;;15.97;100.00
24962;BME280;12992;50.884;13.668;2022-10-14T10:13:45;97358.56;;;16.10;100.00
24962;BME280;12992;50.884;13.668;2022-10-14T10:16:20;97394.69;;;16.76;100.00
24962;BME280;12992;50.884;13.668;2022-10-14T10:18:47;97372.88;;;17.03;99.78
24962;BME280;12992;50.884;13.668;2022-10-14T10:21:17;97381.34;;;17.44;98.87
24962;BME280;12992;50.884;13.668;2022-10-14T10:24:11;97367.25;;;17.83;96.19
24962;BME280;12992;50.884;13.668;2022-10-14T10:26:41;97352.47;;;17.93;91.63
24962;BME280;12992;50.884;13.668;2022-10-14T10:29:22;97356.03;;;18.26;90.82
24962;BME280;12992;50.884;13.668;2022-10-14T10:32:06;97319.41;;;17.79;90.58
24962;BME280;12992;50.884;13.668;2022-10-14T10:37:26;97272.72;;;16.85;95.27
24962;BME280;12992;50.884;13.668;2022-10-14T10:42:34;97253.09;;;16.06;99.41
24962;BME280;12992;50.884;13.668;2022-10-14T10:47:59;97258.78;;;15.91;100.00
24962;BME280;12992;50.884;13.668;2022-10-14T10:50:32;97251.09;;;15.64;100.00
24962;BME280;12992;50.884;13.668;2022-10-14T10:53:19;97251.50;;;15.47;100.00
24962;BME280;12992;50.884;13.668;2022-10-14T10:56:03;97250.75;;;15.37;100.00
24962;BME280;12992;50.884;13.668;2022-10-14T10:58:38;97248.66;;;15.28;100.00
24962;BME280;12992;50.884;13.668;2022-10-14T11:04:16;97252.66;;;15.07;100.00
24962;BME280;12992;50.884;13.668;2022-10-14T11:07:20;97257.34;;;15.01;100.00
24962;BME280;12992;50.884;13.668;2022-10-14T11:16:49;97286.19;;;15.67;100.00
24962;BME280;12992;50.884;13.668;2022-10-14T11:19:33;97290.66;;;15.87;100.00
24962;BME280;12992;50.884;13.668;2022-10-14T11:22:09;97294.66;;;16.00;100.00
24962;BME280;12992;50.884;13.668;2022-10-14T11:24:55;97280.16;;;15.94;100.00
24962;BME280;12992;50.884;13.668;2022-10-14T11:31:51;97267.53;;;15.93;100.00
24962;BME280;12992;50.884;13.668;2022-10-14T11:36:56;97252.66;;;15.99;100.00
24962;BME280;12992;50.884;13.668;2022-10-14T11:39:41;97240.06;;;15.93;98.17
24962;BME280;12992;50.884;13.668;2022-10-14T11:47:38;97211.91;;;15.53;100.00
24962;BME280;12992;50.884;13.668;2022-10-14T11:50:18;97202.38;;;15.46;100.00
24962;BME280;12992;50.884;13.668;2022-10-14T11:52:56;97210.09;;;15.44;100.00
24962;BME280;12992;50.884;13.668;2022-10-14T11:55:28;97200.31;;;15.33;100.00
24962;BME280;12992;50.884;13.668;2022-10-14T11:58:24;97198.25;;;15.19;100.00
24962;BME280;12992;50.884;13.668;2022-10-14T12:00:52;97197.22;;;15.10;100.00
24962;BME280;12992;50.884;13.668;2022-10-14T12:03:39;97201.91;;;15.10;100.00
24962;BME280;12992;50.884;13.668;2022-10-14T12:06:13;97209.06;;;15.06;100.00
24962;BME280;12992;50.884;13.668;2022-10-14T12:08:54;97200.56;;;15.07;100.00
24962;BME280;12992;50.884;13.668;2022-10-14T12:11:41;97220.53;;;15.13;100.00
24962;BME280;12992;50.884;13.668;2022-10-14T12:14:16;97231.09;;;15.29;100.00
24962;BME280;12992;50.884;13.668;2022-10-14T12:16:45;97227.91;;;15.46;100.00
24962;BME280;12992;50.884;13.668;2022-10-14T12:19:14;97233.53;;;15.65;100.00
24962;BME280;12992;50.884;13.668;2022-10-14T12:24:36;97236.47;;;16.17;100.00
24962;BME280;12992;50.884;13.668;2022-10-14T12:27:04;97241.25;;;16.54;100.00
24962;BME280;12992;50.884;13.668;2022-10-14T12:29:43;97239.56;;;16.77;99.00
24962;BME280;12992;50.884;13.668;2022-10-14T12:34:42;97204.47;;;16.68;96.97
24962;BME280;12992;50.884;13.668;2022-10-14T12:39:50;97190.16;;;16.72;95.05
24962;BME280;12992;50.884;13.668;2022-10-14T12:42:16;97193.75;;;16.67;95.00
24962;BME280;12992;50.884;13.668;2022-10-14T12:44:54;97189.66;;;16.64;98.97
24962;BME280;12992;50.884;13.668;2022-10-14T12:49:51;97180.25;;;16.70;95.12
24962;BME280;12992;50.884;13.668;2022-10-14T12:52:21;97196.78;;;16.65;100.00
24962;BME280;12992;50.884;13.668;2022-10-14T12:54:48;97183.34;;;16.64;96.43
24962;BME280;12992;50.884;13.668;2022-10-14T12:57:35;97184.16;;;16.64;97.58
24962;BME280;12992;50.884;13.668;2022-10-14T13:02:47;97169.66;;;16.59;99.04
24962;BME280;12992;50.884;13.668;2022-10-14T13:21:10;97161.97;;;16.61;94.74
24962;BME280;12992;50.884;13.668;2022-10-14T13:23:45;97154.09;;;16.54;93.32
24962;BME280;12992;50.884;13.668;2022-10-14T13:26:39;97132.25;;;16.44;92.51
24962;BME280;12992;50.884;13.668;2022-10-14T13:37:32;97119.47;;;16.15;95.00
24962;BME280;12992;50.884;13.668;2022-10-14T13:40:28;97116.34;;;16.03;100.00
24962;BME280;12992;50.884;13.668;2022-10-14T13:43:00;97125.75;;;15.97;100.00
24962;BME280;12992;50.884;13.668;2022-10-14T13:46:12;97137.06;;;16.14;100.00
24962;BME280;12992;50.884;13.668;2022-10-14T13:48:42;97125.03;;;16.29;94.92
24962;BME280;12992;50.884;13.668;2022-10-14T13:56:35;97107.78;;;16.42;91.97
24962;BME280;12992;50.884;13.668;2022-10-14T13:59:00;97097.03;;;16.46;91.55
24962;BME280;12992;50.884;13.668;2022-10-14T14:01:31;97095.16;;;16.41;96.88
24962;BME280;12992;50.884;13.668;2022-10-14T14:03:58;97109.16;;;16.45;100.00
24962;BME280;12992;50.884;13.668;2022-10-14T14:06:25;97122.06;;;16.63;100.00
24962;BME280;12992;50.884;13.668;2022-10-14T14:09:01;97119.66;;;16.76;94.14
24962;BME280;12992;50.884;13.668;2022-10-14T14:11:34;97123.06;;;16.86;92.74
24962;BME280;12992;50.884;13.668;2022-10-14T14:14:06;97096.25;;;16.59;95.98
24962;BME280;12992;50.884;13.668;2022-10-14T14:16:46;97097.88;;;16.60;95.81
24962;BME280;12992;50.884;13.668;2022-10-14T14:19:21;97081.13;;;16.43;93.56
24962;BME280;12992;50.884;13.668;2022-10-14T14:21:49;97068.47;;;16.28;93.47
24962;BME280;12992;50.884;13.668;2022-10-14T14:24:22;97071.13;;;16.14;95.29
24962;BME280;12992;50.884;13.668;2022-10-14T14:26:51;97071.88;;;16.01;100.00
24962;BME280;12992;50.884;13.668;2022-10-14T14:29:25;97068.75;;;15.89;100.00
24962;BME280;12992;50.884;13.668;2022-10-14T14:31:50;97067.94;;;15.89;99.65
24962;BME280;12992;50.884;13.668;2022-10-14T14:34:18;97071.50;;;15.89;100.00
24962;BME280;12992;50.884;13.668;2022-10-14T14:36:45;97094.22;;;16.13;100.00
24962;BME280;12992;50.884;13.668;2022-10-14T14:39:26;97086.06;;;16.27;95.64
24962;BME280;12992;50.884;13.668;2022-10-14T14:41:53;97060.75;;;16.11;98.96
24962;BME280;12992;50.884;13.668;2022-10-14T14:44:22;97043.16;;;15.94;100.00